Time;durP1;ratioP1;P1;durP2;ratioP2;P2;SDS_P1;SDS_P2;PMS_P1;PMS_P2;Temp;Humidity;BMP_temperature;BMP_pressure;BME280_temperature;BME280_humidity;BME280_pressure;Samples;Min_cycle;Max_cycle;Signal;HPM_P1;HPM_P2
2023/05/05 00:00:42;;;;;;;45.55;32.85;;;9.30;99.90;;;;;;5048750;28;20060;-78
2023/05/05 00:03:09;;;;;;;42.78;31.05;;;9.20;99.90;;;;;;5048538;28;20052;-78
2023/05/05 00:05:38;;;;;;;34.15;27.13;;;9.20;99.90;;;;;;5050183;28;20048;-79
2023/05/05 00:08:06;;;;;;;36.22;27.50;;;9.20;99.90;;;;;;5049154;28;20049;-79
2023/05/05 00:10:33;;;;;;;38.08;28.05;;;9.20;99.90;;;;;;5049287;28;20075;-80
2023/05/05 00:13:01;;;;;;;40.97;29.48;;;9.10;99.90;;;;;;5049180;28;20099;-78
2023/05/05 00:15:28;;;;;;;44.50;31.08;;;9.10;99.90;;;;;;5049349;28;20037;-77
2023/05/05 00:17:56;;;;;;;44.20;29.65;;;9.10;99.90;;;;;;5049366;28;20076;-78
2023/05/05 00:20:23;;;;;;;35.63;27.77;;;9.10;99.90;;;;;;5067633;28;20047;-78
2023/05/05 00:22:52;;;;;;;34.55;25.60;;;9.10;99.90;;;;;;5066359;28;20045;-78
2023/05/05 00:25:19;;;;;;;32.75;27.33;;;9.10;99.90;;;;;;5051301;28;20049;-78
2023/05/05 00:27:47;;;;;;;44.72;33.17;;;9.10;99.90;;;;;;5050176;28;20044;-79
2023/05/05 00:30:14;;;;;;;42.67;31.67;;;9.00;99.90;;;;;;5031443;28;20098;-78
2023/05/05 00:32:42;;;;;;;38.95;27.70;;;8.90;99.90;;;;;;5048560;28;20041;-79
2023/05/05 00:35:09;;;;;;;32.80;25.35;;;8.90;99.90;;;;;;5049932;28;20515;-77
2023/05/05 00:37:37;;;;;;;39.40;28.73;;;8.80;99.90;;;;;;5048889;28;20041;-79
2023/05/05 00:40:07;;;;;;;40.65;28.58;;;8.70;99.90;;;;;;5030937;28;20045;-79
2023/05/05 00:42:41;;;;;;;34.20;24.48;;;8.70;99.90;;;;;;5029966;28;20045;-77
2023/05/05 00:45:10;;;;;;;30.45;24.10;;;8.60;99.90;;;;;;5030834;28;20051;-78
2023/05/05 00:47:38;;;;;;;28.02;21.60;;;8.60;99.90;;;;;;5049360;28;20481;-79
2023/05/05 00:50:08;;;;;;;30.70;23.75;;;8.50;99.90;;;;;;5049267;28;20045;-79
2023/05/05 00:52:37;;;;;;;32.20;23.48;;;8.60;99.90;;;;;;5029821;28;20029;-78
2023/05/05 00:55:08;;;;;;;33.28;25.05;;;8.60;99.90;;;;;;5048151;28;20045;-78
2023/05/05 00:57:36;;;;;;;30.20;24.52;;;8.50;99.90;;;;;;5029997;28;20417;-79
2023/05/05 01:00:05;;;;;;;37.05;25.50;;;8.50;99.90;;;;;;5023455;28;20041;-79
2023/05/05 01:02:35;;;;;;;32.67;25.20;;;8.50;99.90;;;;;;5016639;28;20767;-79
2023/05/05 01:05:03;;;;;;;29.05;24.88;;;8.60;99.90;;;;;;5017933;28;20038;-79
2023/05/05 01:07:40;;;;;;;30.15;25.45;;;8.60;99.90;;;;;;5016549;28;20049;-79
2023/05/05 01:10:14;;;;;;;33.13;26.88;;;8.50;99.90;;;;;;5017134;28;20454;-79
2023/05/05 01:12:49;;;;;;;31.20;27.20;;;8.50;99.90;;;;;;5017048;28;20505;-79
2023/05/05 01:15:25;;;;;;;31.20;27.15;;;8.40;99.90;;;;;;5030463;28;20894;-79
2023/05/05 01:17:59;;;;;;;39.50;32.38;;;8.40;99.90;;;;;;5018215;28;20042;-79
2023/05/05 01:20:33;;;;;;;35.50;28.67;;;8.30;99.90;;;;;;5018300;28;20037;-79
2023/05/05 01:23:07;;;;;;;30.92;22.58;;;8.30;99.90;;;;;;5016956;28;20061;-79
2023/05/05 01:26:01;;;;;;;28.23;22.67;;;8.30;99.90;;;;;;5018137;28;20061;-79
2023/05/05 01:28:45;;;;;;;29.17;22.33;;;8.20;99.90;;;;;;5016545;28;20060;-79
2023/05/05 01:31:35;;;;;;;26.50;21.25;;;8.30;99.90;;;;;;5017544;28;20540;-78
2023/05/05 01:34:07;;;;;;;29.40;22.88;;;8.30;99.90;;;;;;5027461;28;20064;-78
2023/05/05 01:36:41;;;;;;;29.17;23.35;;;8.30;99.90;;;;;;5017136;28;20041;-79
2023/05/05 01:39:12;;;;;;;31.77;23.77;;;8.40;99.90;;;;;;5015118;28;20053;-79
2023/05/05 01:41:43;;;;;;;37.05;26.50;;;8.30;99.90;;;;;;5017960;28;20053;-80
2023/05/05 01:44:13;;;;;;;34.97;26.45;;;8.30;99.90;;;;;;5017164;28;20111;-78
2023/05/05 01:46:42;;;;;;;33.08;25.02;;;8.20;99.90;;;;;;5017648;28;20045;-79
2023/05/05 01:49:11;;;;;;;31.00;22.70;;;8.20;99.90;;;;;;5017632;28;20104;-78
2023/05/05 01:51:40;;;;;;;31.33;24.23;;;8.20;99.90;;;;;;5016919;28;20117;-78
2023/05/05 01:54:09;;;;;;;27.48;22.48;;;8.10;99.90;;;;;;5016229;28;20046;-78
2023/05/05 01:56:39;;;;;;;31.00;24.92;;;8.10;99.90;;;;;;5017990;28;20041;-78
2023/05/05 01:59:07;;;;;;;30.13;23.58;;;8.10;99.90;;;;;;5016128;28;20128;-79
2023/05/05 02:01:40;;;;;;;32.33;24.42;;;8.10;99.90;;;;;;5030109;28;20064;-79
2023/05/05 02:04:10;;;;;;;31.20;24.40;;;8.10;99.90;;;;;;5047221;28;20118;-79
2023/05/05 02:06:38;;;;;;;29.80;23.42;;;8.10;99.90;;;;;;5049615;28;20498;-78
2023/05/05 02:09:07;;;;;;;34.33;22.65;;;8.10;99.90;;;;;;5034143;28;20099;-79
2023/05/05 02:11:35;;;;;;;34.38;24.08;;;8.10;99.90;;;;;;5052763;28;20059;-79
2023/05/05 02:14:05;;;;;;;35.70;24.50;;;8.10;99.90;;;;;;5033456;28;20044;-79
2023/05/05 02:16:33;;;;;;;33.85;22.55;;;8.10;99.90;;;;;;5033016;28;20075;-79
2023/05/05 02:19:03;;;;;;;34.97;22.65;;;8.20;99.90;;;;;;5051124;28;20651;-79
2023/05/05 02:21:33;;;;;;;38.38;23.65;;;8.10;99.90;;;;;;5050376;28;20045;-79
2023/05/05 02:24:02;;;;;;;33.58;24.55;;;8.10;99.90;;;;;;5050565;28;20127;-79
2023/05/05 02:26:33;;;;;;;34.90;23.92;;;8.10;99.90;;;;;;5032365;28;20148;-79
2023/05/05 02:29:06;;;;;;;32.45;23.92;;;8.00;99.90;;;;;;5032645;28;20080;-78
2023/05/05 02:31:38;;;;;;;37.40;25.08;;;8.00;99.90;;;;;;5051162;28;20034;-78
2023/05/05 02:34:07;;;;;;;43.00;27.45;;;8.00;99.90;;;;;;5050497;28;20056;-78
2023/05/05 02:36:41;;;;;;;37.40;26.50;;;7.90;99.90;;;;;;5032437;28;20043;-80
2023/05/05 02:39:14;;;;;;;39.75;26.75;;;8.00;99.90;;;;;;5033097;28;20068;-79
2023/05/05 02:41:45;;;;;;;44.33;27.52;;;8.00;99.90;;;;;;5031820;28;20037;-79
2023/05/05 02:44:23;;;;;;;45.47;28.85;;;8.00;99.90;;;;;;5043364;28;20132;-80
2023/05/05 02:46:51;;;;;;;42.72;28.63;;;8.10;99.90;;;;;;5031428;28;20049;-79
2023/05/05 02:49:19;;;;;;;47.20;31.02;;;8.10;99.90;;;;;;5033201;28;20044;-79
2023/05/05 02:51:49;;;;;;;48.15;31.95;;;8.10;99.90;;;;;;5031415;28;20565;-79
2023/05/05 02:54:23;;;;;;;50.65;31.00;;;8.20;99.90;;;;;;5032323;28;20048;-78
2023/05/05 02:56:54;;;;;;;43.83;28.90;;;8.20;99.90;;;;;;5015441;28;20048;-79
2023/05/05 02:59:32;;;;;;;39.38;26.20;;;8.20;99.90;;;;;;5032378;28;20052;-79
2023/05/05 03:02:10;;;;;;;38.15;25.10;;;8.20;99.90;;;;;;5028244;28;20073;-78
2023/05/05 03:04:42;;;;;;;39.10;25.42;;;8.20;99.90;;;;;;5029418;28;20470;-79
2023/05/05 03:07:15;;;;;;;31.13;22.63;;;8.20;99.90;;;;;;5029315;28;20045;-79
2023/05/05 03:09:58;;;;;;;33.67;22.77;;;8.20;99.90;;;;;;5029167;28;20104;-78
2023/05/05 03:12:30;;;;;;;37.55;23.52;;;8.20;99.90;;;;;;5030215;28;20042;-79
2023/05/05 03:15:15;;;;;;;36.53;25.63;;;8.20;99.90;;;;;;5026552;28;20061;-79
2023/05/05 03:17:45;;;;;;;43.08;26.90;;;8.20;99.90;;;;;;5028866;28;20076;-80
2023/05/05 03:20:14;;;;;;;45.55;27.80;;;8.20;99.90;;;;;;5030356;28;20108;-80
2023/05/05 03:22:47;;;;;;;52.15;27.65;;;8.20;99.90;;;;;;5029130;28;20409;-79
2023/05/05 03:25:15;;;;;;;51.50;25.30;;;8.20;99.90;;;;;;5029365;28;21051;-79
2023/05/05 03:27:43;;;;;;;51.42;25.35;;;8.20;99.90;;;;;;5029521;28;20042;-80
2023/05/05 03:30:14;;;;;;;42.03;24.05;;;8.30;99.90;;;;;;5037206;28;20460;-79
2023/05/05 03:32:47;;;;;;;50.17;25.13;;;8.20;99.90;;;;;;5030367;28;20045;-78
2023/05/05 03:35:15;;;;;;;50.78;28.70;;;8.30;99.90;;;;;;5030012;28;20041;-79
2023/05/05 03:37:43;;;;;;;48.60;27.50;;;8.20;99.90;;;;;;5030514;28;20044;-78
2023/05/05 03:40:13;;;;;;;45.15;25.42;;;8.20;99.90;;;;;;5029216;28;20052;-78
2023/05/05 03:42:42;;;;;;;43.65;26.83;;;8.20;99.90;;;;;;5028910;28;20045;-79
2023/05/05 03:45:10;;;;;;;52.80;29.33;;;8.10;99.90;;;;;;5033351;28;20095;-79
2023/05/05 03:47:39;;;;;;;58.20;34.00;;;8.10;99.90;;;;;;5047160;28;20038;-78
2023/05/05 03:50:08;;;;;;;50.58;30.05;;;8.10;99.90;;;;;;5050145;28;20073;-79
2023/05/05 03:52:36;;;;;;;55.38;31.90;;;8.10;99.90;;;;;;5028120;28;20064;-79
2023/05/05 03:55:04;;;;;;;47.75;30.38;;;8.20;99.90;;;;;;5028530;28;20068;-79
2023/05/05 03:57:33;;;;;;;47.38;31.50;;;8.20;99.90;;;;;;5028665;28;20040;-78
2023/05/05 04:00:01;;;;;;;54.33;30.40;;;8.20;99.90;;;;;;5037950;28;20679;-77
2023/05/05 04:02:30;;;;;;;61.25;32.53;;;8.20;99.90;;;;;;5039092;28;20037;-78
2023/05/05 04:04:57;;;;;;;64.57;31.13;;;8.20;99.90;;;;;;5030716;28;20630;-78
2023/05/05 04:07:25;;;;;;;57.50;32.22;;;8.30;99.90;;;;;;5030310;28;20501;-79
2023/05/05 04:09:53;;;;;;;57.10;31.90;;;8.30;99.90;;;;;;5029779;28;20049;-78
2023/05/05 04:12:21;;;;;;;73.72;31.30;;;8.40;99.90;;;;;;5030933;28;20041;-78
2023/05/05 04:14:50;;;;;;;64.93;32.95;;;8.50;99.90;;;;;;5048535;28;20037;-79
2023/05/05 04:17:18;;;;;;;56.65;30.50;;;8.50;99.90;;;;;;5049500;28;20045;-79
2023/05/05 04:19:45;;;;;;;53.17;30.98;;;8.60;99.90;;;;;;5031594;28;20041;-78
2023/05/05 04:22:13;;;;;;;52.45;29.70;;;8.70;99.90;;;;;;5031557;28;20405;-79
2023/05/05 04:24:40;;;;;;;49.45;30.02;;;8.80;99.90;;;;;;5033567;28;20044;-79
2023/05/05 04:27:08;;;;;;;43.70;28.40;;;8.80;99.90;;;;;;5054967;28;20073;-77
2023/05/05 04:29:36;;;;;;;43.83;27.73;;;8.80;99.90;;;;;;5036251;28;20045;-78
2023/05/05 04:32:05;;;;;;;43.22;27.20;;;8.80;99.90;;;;;;5036704;28;20049;-79
2023/05/05 04:34:33;;;;;;;43.10;27.83;;;8.90;99.90;;;;;;5039048;28;20424;-79
2023/05/05 04:37:01;;;;;;;40.42;27.27;;;8.90;99.90;;;;;;5049703;28;20045;-78
2023/05/05 04:39:33;;;;;;;41.47;27.40;;;9.00;99.90;;;;;;5030511;28;20045;-79
2023/05/05 04:42:01;;;;;;;48.95;27.58;;;9.10;99.90;;;;;;5030096;28;20053;-79
2023/05/05 04:44:28;;;;;;;40.33;24.05;;;9.30;99.90;;;;;;5032098;28;20045;-79
2023/05/05 04:46:56;;;;;;;46.53;25.58;;;9.40;99.90;;;;;;5030588;28;20060;-78
2023/05/05 04:49:25;;;;;;;35.75;24.10;;;9.60;99.90;;;;;;5051233;28;20052;-78
2023/05/05 04:51:53;;;;;;;38.53;24.60;;;9.80;99.90;;;;;;5030711;28;20059;-79
2023/05/05 04:54:21;;;;;;;38.92;24.88;;;9.90;99.90;;;;;;5031390;28;20562;-78
2023/05/05 04:56:49;;;;;;;44.63;26.63;;;9.80;99.90;;;;;;5035071;28;20036;-79
2023/05/05 04:59:17;;;;;;;40.88;25.65;;;10.00;99.90;;;;;;5052018;28;20053;-79
2023/05/05 05:01:44;;;;;;;38.80;26.13;;;10.00;99.90;;;;;;5042954;28;20053;-79
2023/05/05 05:04:12;;;;;;;37.95;25.27;;;10.00;99.90;;;;;;5059776;28;20148;-78
2023/05/05 05:06:41;;;;;;;36.72;26.23;;;10.20;99.90;;;;;;5059248;28;20493;-78
2023/05/05 05:09:08;;;;;;;39.97;26.10;;;10.30;99.90;;;;;;5058296;28;20112;-78
2023/05/05 05:11:35;;;;;;;43.45;26.92;;;10.30;99.90;;;;;;5038896;28;20044;-78
2023/05/05 05:14:03;;;;;;;43.50;27.40;;;10.40;99.90;;;;;;5030200;28;20045;-78
2023/05/05 05:16:30;;;;;;;47.30;29.27;;;10.40;99.90;;;;;;5037501;28;20519;-78
2023/05/05 05:18:58;;;;;;;48.38;28.98;;;10.40;99.90;;;;;;5030276;28;20390;-78
2023/05/05 05:21:26;;;;;;;44.67;29.25;;;10.70;99.90;;;;;;5030039;28;20037;-78
2023/05/05 05:23:55;;;;;;;45.13;27.92;;;10.80;99.90;;;;;;5029682;28;20071;-78
2023/05/05 05:26:23;;;;;;;42.53;27.42;;;11.00;99.90;;;;;;5029219;28;20073;-79
2023/05/05 05:28:50;;;;;;;41.90;27.45;;;11.30;99.90;;;;;;5030243;28;20095;-74
2023/05/05 05:31:18;;;;;;;48.65;28.67;;;11.70;99.90;;;;;;5047789;28;20401;-77
2023/05/05 05:33:46;;;;;;;50.08;30.65;;;11.90;99.90;;;;;;5029848;28;20045;-75
2023/05/05 05:36:15;;;;;;;44.67;27.80;;;12.00;99.90;;;;;;5029375;28;20061;-77
2023/05/05 05:38:44;;;;;;;41.42;26.67;;;12.20;99.90;;;;;;5030149;28;20119;-78
2023/05/05 05:41:13;;;;;;;41.50;26.10;;;12.50;99.90;;;;;;5029876;28;20103;-77
2023/05/05 05:43:41;;;;;;;47.72;30.65;;;12.80;99.90;;;;;;5048281;28;20094;-77
2023/05/05 05:46:09;;;;;;;36.55;24.02;;;13.40;99.90;;;;;;5048092;28;20317;-77
2023/05/05 05:48:38;;;;;;;38.08;24.67;;;13.60;99.90;;;;;;5029741;28;20618;-77
2023/05/05 05:51:05;;;;;;;34.97;23.77;;;13.70;99.90;;;;;;5028212;28;20612;-77
2023/05/05 05:53:33;;;;;;;37.15;26.98;;;13.80;99.90;;;;;;5029892;28;20048;-77
2023/05/05 05:56:02;;;;;;;35.40;24.85;;;13.90;99.90;;;;;;5029910;28;20037;-76
2023/05/05 05:58:31;;;;;;;35.50;25.40;;;13.70;99.90;;;;;;5048154;28;20050;-76
2023/05/05 06:00:59;;;;;;;44.35;29.05;;;13.80;99.90;;;;;;5028773;28;20681;-75
2023/05/05 06:03:28;;;;;;;47.45;29.25;;;14.20;99.90;;;;;;5029269;28;20069;-74
2023/05/05 06:05:57;;;;;;;42.85;30.13;;;14.50;99.90;;;;;;5029260;28;20052;-77
2023/05/05 06:08:25;;;;;;;39.15;28.65;;;14.50;99.90;;;;;;5028632;28;20525;-77
2023/05/05 06:10:54;;;;;;;38.83;29.17;;;14.60;99.90;;;;;;5028737;28;20048;-76
2023/05/05 06:13:22;;;;;;;38.97;27.52;;;15.00;99.90;;;;;;5047345;28;20060;-76
2023/05/05 06:15:53;;;;;;;48.70;29.27;;;15.30;99.90;;;;;;5046057;28;20053;-75
2023/05/05 06:18:21;;;;;;;35.42;26.27;;;15.20;99.90;;;;;;5028680;28;20456;-76
2023/05/05 06:20:51;;;;;;;36.33;26.48;;;15.20;99.90;;;;;;5026834;28;20108;-77
2023/05/05 06:23:20;;;;;;;35.38;25.35;;;15.50;99.90;;;;;;5029736;28;20110;-77
2023/05/05 06:25:53;;;;;;;43.42;27.10;;;15.90;99.90;;;;;;5014406;28;20037;-76
2023/05/05 06:28:21;;;;;;;37.17;26.98;;;16.20;99.90;;;;;;5029497;28;20112;-74
2023/05/05 06:30:48;;;;;;;35.65;27.85;;;16.60;99.90;;;;;;5046245;28;20060;-75
2023/05/05 06:33:17;;;;;;;37.55;26.35;;;16.60;99.90;;;;;;5047320;28;20408;-73
2023/05/05 06:35:46;;;;;;;38.10;26.75;;;16.70;99.90;;;;;;5047075;28;20501;-76
2023/05/05 06:38:13;;;;;;;39.78;29.00;;;16.80;99.90;;;;;;5048659;28;20037;-75
2023/05/05 06:40:42;;;;;;;42.95;30.13;;;17.00;99.90;;;;;;5028827;28;20453;-75
2023/05/05 06:43:10;;;;;;;40.80;30.40;;;17.20;99.90;;;;;;5047167;28;20091;-75
2023/05/05 06:45:44;;;;;;;39.95;30.92;;;17.40;99.90;;;;;;5029099;28;20501;-76
2023/05/05 06:48:12;;;;;;;37.80;29.30;;;17.50;99.90;;;;;;5047515;28;20144;-76
2023/05/05 06:50:41;;;;;;;42.45;31.23;;;17.70;99.90;;;;;;5046800;28;20065;-76
2023/05/05 06:53:08;;;;;;;42.55;31.50;;;17.80;99.90;;;;;;5049429;28;20053;-76
2023/05/05 06:55:36;;;;;;;40.97;31.33;;;17.80;99.90;;;;;;5051106;28;20041;-75
2023/05/05 06:58:03;;;;;;;46.55;31.45;;;17.70;99.90;;;;;;5051920;28;20472;-75
2023/05/05 07:00:31;;;;;;;39.88;32.60;;;17.80;99.90;;;;;;5050013;28;20115;-75
2023/05/05 07:02:58;;;;;;;34.35;26.38;;;17.80;99.90;;;;;;5050651;28;20052;-75
2023/05/05 07:05:26;;;;;;;37.50;28.60;;;17.50;99.90;;;;;;5033274;28;20045;-76
2023/05/05 07:07:56;;;;;;;34.05;26.83;;;17.80;99.90;;;;;;5049060;28;20476;-74
2023/05/05 07:10:24;;;;;;;36.70;27.33;;;18.10;99.90;;;;;;5050120;28;20045;-73
2023/05/05 07:12:53;;;;;;;35.00;27.90;;;18.50;99.90;;;;;;5055255;28;20060;-74
2023/05/05 07:15:21;;;;;;;35.08;26.83;;;18.70;99.90;;;;;;5062661;28;20110;-74
2023/05/05 07:17:49;;;;;;;32.53;26.23;;;18.90;99.90;;;;;;5055257;28;20518;-75
2023/05/05 07:20:17;;;;;;;34.75;25.20;;;18.80;99.90;;;;;;5051740;28;20112;-75
2023/05/05 07:22:45;;;;;;;40.53;28.52;;;18.70;99.90;;;;;;5053013;28;20068;-75
2023/05/05 07:25:15;;;;;;;44.08;31.13;;;18.80;99.90;;;;;;5051924;28;20095;-74
2023/05/05 07:27:43;;;;;;;37.80;30.58;;;19.10;99.90;;;;;;5051939;28;20052;-75
2023/05/05 07:30:11;;;;;;;25.92;21.98;;;19.40;99.90;;;;;;5042662;28;20040;-74
2023/05/05 07:32:38;;;;;;;31.13;26.30;;;19.50;99.90;;;;;;5068976;28;20053;-76
2023/05/05 07:35:07;;;;;;;31.63;25.23;;;19.60;99.90;;;;;;5036843;28;20148;-75
2023/05/05 07:37:34;;;;;;;28.00;24.23;;;19.30;99.90;;;;;;5053137;28;20049;-76
2023/05/05 07:40:02;;;;;;;31.10;25.05;;;19.10;99.90;;;;;;5050757;28;20084;-75
2023/05/05 07:42:31;;;;;;;35.42;26.55;;;19.00;99.90;;;;;;5050571;28;20051;-75
2023/05/05 07:44:59;;;;;;;30.85;24.83;;;19.30;99.90;;;;;;5050849;28;20049;-75
2023/05/05 07:47:27;;;;;;;34.20;25.90;;;19.50;99.90;;;;;;5051194;28;20041;-75
2023/05/05 07:49:54;;;;;;;33.75;25.20;;;19.50;99.90;;;;;;5049566;28;20045;-75
2023/05/05 07:52:22;;;;;;;33.00;24.08;;;19.70;99.90;;;;;;5049473;28;20041;-72
2023/05/05 07:54:50;;;;;;;29.60;22.45;;;19.80;99.90;;;;;;5031626;28;20174;-75
2023/05/05 07:57:18;;;;;;;22.77;17.40;;;19.70;99.90;;;;;;5031185;28;20040;-74
2023/05/05 07:59:47;;;;;;;28.63;19.55;;;19.60;99.90;;;;;;5048969;28;20098;-75
2023/05/05 08:02:14;;;;;;;29.17;22.13;;;19.70;99.90;;;;;;5048287;28;20486;-74
2023/05/05 08:04:42;;;;;;;29.30;20.25;;;19.70;99.90;;;;;;5049056;28;20049;-75
2023/05/05 08:07:10;;;;;;;33.08;24.30;;;20.00;99.90;;;;;;5049443;28;20151;-75
2023/05/05 08:09:38;;;;;;;29.70;20.27;;;20.20;99.90;;;;;;5049165;28;20048;-75
2023/05/05 08:12:06;;;;;;;23.52;17.77;;;20.30;99.90;;;;;;5048375;28;20121;-75
2023/05/05 08:14:33;;;;;;;20.02;16.17;;;20.30;99.90;;;;;;5049446;28;20447;-75
2023/05/05 08:17:02;;;;;;;21.20;17.45;;;20.40;99.90;;;;;;5050164;28;20049;-75
2023/05/05 08:19:30;;;;;;;22.52;16.70;;;20.20;99.90;;;;;;5030285;28;20095;-74
2023/05/05 08:21:59;;;;;;;21.67;19.10;;;20.10;99.90;;;;;;5030333;28;20053;-75
2023/05/05 08:24:27;;;;;;;22.38;17.00;;;20.20;99.90;;;;;;5047723;28;20045;-74
2023/05/05 08:26:55;;;;;;;22.35;19.02;;;20.40;99.90;;;;;;5049271;28;20055;-74
2023/05/05 08:29:22;;;;;;;21.90;16.58;;;20.60;99.90;;;;;;5049863;28;20570;-75
2023/05/05 08:31:50;;;;;;;21.92;17.60;;;20.90;99.90;;;;;;5048183;28;20045;-75
2023/05/05 08:34:19;;;;;;;30.58;21.67;;;21.00;99.90;;;;;;5048607;28;20041;-75
2023/05/05 08:36:47;;;;;;;26.60;22.38;;;21.00;99.90;;;;;;5048531;28;20079;-75
2023/05/05 08:39:16;;;;;;;25.17;22.48;;;21.00;99.90;;;;;;5049955;28;20044;-74
2023/05/05 08:41:44;;;;;;;26.25;22.33;;;21.00;99.90;;;;;;5048888;28;20037;-75
2023/05/05 08:44:11;;;;;;;30.58;25.50;;;21.00;99.90;;;;;;5049845;28;20079;-75
2023/05/05 08:46:40;;;;;;;27.70;22.25;;;21.30;99.90;;;;;;5048596;28;20044;-75
2023/05/05 08:49:10;;;;;;;23.05;20.33;;;21.50;99.90;;;;;;5048436;28;20045;-75
2023/05/05 08:51:43;;;;;;;24.88;20.27;;;21.40;99.90;;;;;;5047374;28;20076;-76
2023/05/05 08:54:15;;;;;;;22.02;19.63;;;21.30;99.90;;;;;;5048440;28;20044;-73
2023/05/05 08:56:45;;;;;;;21.40;17.90;;;21.50;99.90;;;;;;5049240;28;20064;-75
2023/05/05 08:59:14;;;;;;;22.77;18.40;;;21.60;99.90;;;;;;5048384;28;20098;-75
2023/05/05 09:01:45;;;;;;;24.08;19.05;;;21.80;99.90;;;;;;5047158;28;20131;-74
2023/05/05 09:04:12;;;;;;;22.45;17.77;;;21.90;99.90;;;;;;5029569;28;20091;-75
2023/05/05 09:06:41;;;;;;;23.60;18.25;;;22.00;99.70;;;;;;5046510;28;20029;-75
2023/05/05 09:09:09;;;;;;;19.45;17.00;;;21.90;98.20;;;;;;5047593;28;20043;-75
2023/05/05 09:11:38;;;;;;;19.30;17.10;;;21.80;99.90;;;;;;5048723;28;20044;-75
2023/05/05 09:14:06;;;;;;;20.08;17.38;;;21.80;97.20;;;;;;5048584;28;20044;-75
2023/05/05 09:16:33;;;;;;;21.08;16.98;;;21.80;97.40;;;;;;5030033;28;20519;-77
2023/05/05 09:19:04;;;;;;;18.90;16.27;;;21.40;99.90;;;;;;5048240;28;20143;-76
2023/05/05 09:21:32;;;;;;;18.60;15.32;;;21.50;99.40;;;;;;5047644;28;20049;-75
2023/05/05 09:24:09;;;;;;;22.83;17.30;;;21.20;99.90;;;;;;5047960;28;20044;-75
2023/05/05 09:26:38;;;;;;;18.25;16.27;;;21.20;99.90;;;;;;5049036;28;20090;-75
2023/05/05 09:29:06;;;;;;;18.33;15.57;;;21.10;99.90;;;;;;5048344;28;20049;-75
2023/05/05 09:31:35;;;;;;;18.02;15.23;;;21.20;99.90;;;;;;5047759;28;20143;-75
2023/05/05 09:34:16;;;;;;;19.60;17.50;;;21.40;99.00;;;;;;5047310;28;20099;-75
2023/05/05 09:36:47;;;;;;;20.35;13.93;;;21.40;98.00;;;;;;5047514;28;20037;-74
2023/05/05 09:39:18;;;;;;;19.60;14.30;;;21.60;96.20;;;;;;5047880;28;20041;-76
2023/05/05 09:41:46;;;;;;;16.83;13.40;;;21.70;96.30;;;;;;5047523;28;20040;-76
2023/05/05 09:44:14;;;;;;;17.17;13.40;;;22.00;91.90;;;;;;5047888;28;20079;-77
2023/05/05 09:46:51;;;;;;;16.55;13.35;;;21.90;90.80;;;;;;5046565;28;20052;-74
2023/05/05 09:49:22;;;;;;;16.08;14.38;;;21.90;90.70;;;;;;5047583;28;20041;-76
2023/05/05 09:51:51;;;;;;;15.65;12.93;;;22.00;91.10;;;;;;5028630;28;20037;-76
2023/05/05 09:54:28;;;;;;;14.30;12.80;;;22.00;90.30;;;;;;5047769;28;20128;-75
2023/05/05 09:56:56;;;;;;;13.52;11.90;;;21.80;90.20;;;;;;5046648;28;20041;-75
2023/05/05 09:59:24;;;;;;;14.90;12.43;;;21.70;91.20;;;;;;5047379;28;20055;-75
2023/05/05 10:01:52;;;;;;;13.40;12.05;;;21.80;91.40;;;;;;5047219;28;20065;-74
2023/05/05 10:04:27;;;;;;;14.13;12.70;;;22.00;90.50;;;;;;5048247;28;20043;-75
2023/05/05 10:06:55;;;;;;;13.13;11.82;;;22.10;90.30;;;;;;5047314;28;20052;-75
2023/05/05 10:09:24;;;;;;;16.33;13.25;;;22.00;89.50;;;;;;5048143;28;20099;-75
2023/05/05 10:11:56;;;;;;;13.25;11.85;;;22.00;90.10;;;;;;5028773;28;20056;-75
2023/05/05 10:14:27;;;;;;;14.23;12.70;;;21.80;89.60;;;;;;5046508;28;20036;-74
2023/05/05 10:16:55;;;;;;;14.35;12.23;;;21.80;89.20;;;;;;5029896;28;20048;-76
2023/05/05 10:19:24;;;;;;;20.65;14.55;;;22.00;88.70;;;;;;5047825;28;20080;-73
2023/05/05 10:21:52;;;;;;;13.38;11.15;;;22.10;87.30;;;;;;5047045;28;20045;-74
2023/05/05 10:24:38;;;;;;;12.80;11.50;;;22.30;85.00;;;;;;5047875;28;20029;-75
2023/05/05 10:27:13;;;;;;;12.68;11.38;;;22.60;82.40;;;;;;5048227;28;20087;-75
2023/05/05 10:29:48;;;;;;;12.30;10.43;;;22.90;81.00;;;;;;5051736;28;20060;-76
2023/05/05 10:32:22;;;;;;;12.57;11.27;;;23.00;79.40;;;;;;5050903;28;20045;-74
2023/05/05 10:34:53;;;;;;;13.57;12.05;;;22.80;80.10;;;;;;5051776;28;20041;-74
2023/05/05 10:37:22;;;;;;;13.13;11.27;;;22.90;78.60;;;;;;5052854;28;20056;-76
2023/05/05 10:39:51;;;;;;;11.30;10.18;;;22.70;77.60;;;;;;5053208;28;20513;-74
2023/05/05 10:42:23;;;;;;;12.63;11.38;;;22.70;78.10;;;;;;5070847;28;20041;-74
2023/05/05 10:44:53;;;;;;;12.57;11.38;;;22.70;78.50;;;;;;5070566;28;20041;-75
2023/05/05 10:47:22;;;;;;;12.15;10.18;;;22.70;78.00;;;;;;5036843;28;20076;-75
2023/05/05 10:50:00;;;;;;;13.05;11.25;;;22.70;77.40;;;;;;5053130;28;20117;-75
2023/05/05 10:52:35;;;;;;;12.85;11.57;;;22.60;77.40;;;;;;5051684;28;20048;-74
2023/05/05 10:55:11;;;;;;;11.82;10.57;;;22.40;78.00;;;;;;5053146;28;20041;-74
2023/05/05 10:57:42;;;;;;;14.50;10.65;;;22.50;78.40;;;;;;5051737;28;20090;-74
2023/05/05 11:00:11;;;;;;;11.55;10.23;;;22.70;78.10;;;;;;5051539;28;20041;-75
2023/05/05 11:02:39;;;;;;;11.23;9.95;;;22.80;77.90;;;;;;5050949;28;20549;-75
2023/05/05 11:05:16;;;;;;;13.80;8.90;;;22.80;76.30;;;;;;5051127;28;20556;-74
2023/05/05 11:07:44;;;;;;;9.77;8.02;;;22.80;73.80;;;;;;5049709;28;20059;-74
2023/05/05 11:10:14;;;;;;;8.10;7.30;;;22.90;73.00;;;;;;5050372;28;20044;-74
2023/05/05 11:13:20;;;;;;;10.00;8.88;;;22.90;72.00;;;;;;5050004;28;20055;-76
2023/05/05 11:15:49;;;;;;;9.50;8.50;;;23.20;70.20;;;;;;5020161;28;20040;-74
2023/05/05 11:18:32;;;;;;;9.50;8.27;;;23.50;68.20;;;;;;5049739;28;20119;-75
2023/05/05 11:21:14;;;;;;;8.73;6.88;;;23.70;67.90;;;;;;5048936;28;20037;-75
2023/05/05 11:23:43;;;;;;;11.68;7.97;;;23.80;65.20;;;;;;5050381;28;20047;-74
2023/05/05 11:26:11;;;;;;;7.88;6.53;;;23.70;64.10;;;;;;5050125;28;20071;-75
2023/05/05 11:29:07;;;;;;;9.20;7.88;;;23.50;63.70;;;;;;5031390;28;20124;-76
2023/05/05 11:31:35;;;;;;;7.97;6.97;;;23.70;63.60;;;;;;5034476;28;20044;-86
2023/05/05 11:34:28;;;;;;;7.20;6.38;;;23.70;62.20;;;;;;5052345;28;20037;-80
2023/05/05 11:37:02;;;;;;;10.35;6.50;;;23.70;61.40;;;;;;5050273;28;20413;-75
2023/05/05 11:39:44;;;;;;;8.50;6.53;;;23.80;61.20;;;;;;5048871;28;20524;-73
2023/05/05 11:42:25;;;;;;;8.02;6.60;;;23.50;60.60;;;;;;5048676;28;20048;-74
2023/05/05 11:44:55;;;;;;;7.40;5.95;;;23.20;60.80;;;;;;5049540;28;20082;-73
2023/05/05 11:47:30;;;;;;;26.90;20.02;;;22.80;61.20;;;;;;5052060;28;20041;-83
2023/05/05 11:49:58;;;;;;;25.48;17.70;;;22.90;60.70;;;;;;5033088;28;20562;-80
2023/05/05 11:52:27;;;;;;;27.08;16.88;;;23.20;59.20;;;;;;5051542;28;20053;-82
2023/05/05 11:55:00;;;;;;;16.90;11.85;;;23.50;61.50;;;;;;5051797;28;20037;-82
2023/05/05 11:57:29;;;;;;;12.93;9.30;;;23.40;61.80;;;;;;5051125;28;20533;-77
2023/05/05 12:00:00;;;;;;;10.18;7.35;;;23.20;62.80;;;;;;5031290;28;20051;-77
2023/05/05 12:02:30;;;;;;;10.32;8.68;;;22.80;62.90;;;;;;5048889;28;20056;-75
2023/05/05 12:04:58;;;;;;;11.32;8.82;;;22.80;63.60;;;;;;5049900;28;20036;-76
2023/05/05 12:07:28;;;;;;;8.55;7.47;;;22.70;62.70;;;;;;5049424;28;20518;-74
2023/05/05 12:09:55;;;;;;;8.82;7.65;;;22.60;64.00;;;;;;5049849;28;20045;-75
2023/05/05 12:12:34;;;;;;;10.18;7.35;;;22.40;65.20;;;;;;5048726;28;20036;-75
2023/05/05 12:15:04;;;;;;;12.73;8.45;;;22.20;66.30;;;;;;5048280;28;20651;-75
2023/05/05 12:17:41;;;;;;;8.70;7.50;;;22.20;66.50;;;;;;5032463;28;20053;-76
2023/05/05 12:20:10;;;;;;;9.50;7.43;;;22.40;65.80;;;;;;5049130;28;20110;-76
2023/05/05 12:22:38;;;;;;;8.68;6.85;;;22.50;63.60;;;;;;5048873;28;20107;-76
2023/05/05 12:25:07;;;;;;;9.57;8.18;;;22.80;63.20;;;;;;5030278;28;20196;-77
2023/05/05 12:27:35;;;;;;;7.88;6.40;;;23.00;63.00;;;;;;5048816;28;20069;-75
2023/05/05 12:30:16;;;;;;;9.35;6.38;;;23.20;59.30;;;;;;5048332;28;20045;-75
2023/05/05 12:32:44;;;;;;;7.07;5.78;;;23.40;59.20;;;;;;5049522;28;20477;-76
2023/05/05 12:35:12;;;;;;;8.32;6.65;;;23.60;58.70;;;;;;5048943;28;20107;-76
2023/05/05 12:37:40;;;;;;;10.50;6.88;;;23.60;57.10;;;;;;5048299;28;20124;-77
2023/05/05 12:40:28;;;;;;;10.38;8.20;;;23.70;56.90;;;;;;5048466;28;20092;-76
2023/05/05 12:42:56;;;;;;;12.23;7.78;;;23.90;56.50;;;;;;5048189;28;20115;-76
2023/05/05 12:45:25;;;;;;;8.93;6.72;;;24.10;56.40;;;;;;5047747;28;20716;-75
2023/05/05 12:47:53;;;;;;;8.18;5.97;;;24.10;56.40;;;;;;5030672;28;20142;-75